Archival Weather

Norman Y Mineta San Jose Intl

San Jose, California (KSJC)

Report from: Thursday, February 22, 2024 10:53 AM PST
Current time: Friday, June 14, 2024 6:18 AM PDT

Current weather – Weather history – Daily summaries
Weather forecast

Temperature15.0°C (59.0°F)
Dew point7.8°C (46.0°F)
Winds Calm
Visibility10 mi. (16.1 km)
Clouds Few clouds 4,000 ft. (1,219 m)
Altimeter30.28 in.Hg (1025 mB)
Relative humidity62 %
Density altitude-257 ft. (-78 m)
Sea-level pressure102.5 kPa (1025 mB, 30.28 in.Hg)
Remarks Automated weather observing station with precipitation discriminator
Towering cumulus clouds observed distant west
Flight conditions Visual Meteorological Conditions
Raw dataKSJC 221853Z 00000KT 10SM FEW040 15/08 A3028 RMK AO2 SLP254 TCU DSNT W T01500078
An error has occurred. This application may no longer respond until reloaded. Reload 🗙